map of NLD home
NLD - Airport
Location
City:  Nuevo Laredo, Tamaulipas, México
Name:Quetzalcóatl International Airport
ICAO:MMNL
IATA:NLD

Details
Type:Airport (Aerodrome, Airfield)
Use:Public/Civil, International (customs port of entry)
Latitude:27°26'38"N (27.443918)
Longitude:99°34'14"W (-99.570459)
Datum:other
Elevation:484 ft (148 m)
Variation:4.69°E (WMM2015 magnetic declination)
-0.11° annual change
Runways:1
Longest:6562 × 148 ft (2000 × 45 m), paved

Time
Time Zone:UTC-6 (DST-5)
Local Time:

Weather
METAR:MMNL 131741Z 28018KT 10SM SKC 25/06 A2983 RMK SLP087 54000 992
TAF:MMNL 131720Z 1318/1418 29020G30KT 6SM DU SKC
FM140600 34015KT P6SM SKC
FM141200 34025KT 5SM DU SKC

Related Locations
Nearby:
Farthest:RRG: 11241 mi / 18090 km
Plaine Corail [Sir Gaëtan Duval Airport (Plaine Corail Airport)], Rodrigues Island, MU

Find:

   beyond  
but within

Other Information
Maps:
NOTAMs:
Links:
Sources:

  
  • flag of México
  • flag of Tamaulipas
  

Sectional Chart

Flight Planning
at skyvector.com

Satellite Image

Google Maps Satellite view

 

Copyright © 2004-2018 Karl L. Swartz. All rights reserved.
The Great Circle Mapper name and logo are trademarks of the Great Circle Mapper.
All other trademarks mentioned herein belong to their respective owners.
Please see credits for attibutions and further copyright information.

  Follow gcmap on Facebook Follow gcmap on Twitter Follow gcmap on Google+ GCmap on LinkedIn

hCard Microformat

Geo Microformat